Time;durP1;ratioP1;P1;durP2;ratioP2;P2;SDS_P1;SDS_P2;PMS_P1;PMS_P2;Temp;Humidity;BMP_temperature;BMP_pressure;BME280_temperature;BME280_humidity;BME280_pressure;Samples;Min_cycle;Max_cycle;Signal;HPM_P1;HPM_P2
2023/04/04 00:01:20;;;;;;;4.87;3.47;;;;;;;-145.52;100.00;65322.94;5103650;28;20477;-65
2023/04/04 00:03:50;;;;;;;6.23;4.10;;;;;;;-145.52;100.00;65322.94;5102745;28;20597;-64
2023/04/04 00:06:18;;;;;;;6.23;3.93;;;;;;;-145.52;100.00;65322.94;5102091;28;20475;-64
2023/04/04 00:08:45;;;;;;;5.50;3.83;;;;;;;-145.52;100.00;65322.94;5103291;28;20538;-63
2023/04/04 00:11:12;;;;;;;5.30;3.67;;;;;;;-145.52;100.00;65322.94;5104527;28;20479;-63
2023/04/04 00:13:39;;;;;;;4.83;3.70;;;;;;;-145.52;100.00;65322.94;5103576;28;20985;-64
2023/04/04 00:16:06;;;;;;;7.63;4.20;;;;;;;-145.52;100.00;65322.94;5098982;27;20911;-63
2023/04/04 00:18:33;;;;;;;11.23;3.60;;;;;;;-145.52;100.00;65322.94;5083084;28;20478;-63
2023/04/04 00:21:00;;;;;;;6.70;3.27;;;;;;;-145.52;100.00;65322.94;5098002;27;20467;-64
2023/04/04 00:23:28;;;;;;;6.23;4.30;;;;;;;-145.52;100.00;65322.94;5103094;28;20451;-63
2023/04/04 00:25:55;;;;;;;4.87;3.70;;;;;;;-145.52;100.00;65322.94;5103349;27;20475;-63
2023/04/04 00:28:22;;;;;;;5.47;3.53;;;;;;;-145.52;100.00;65322.94;5083274;28;20499;-63
2023/04/04 00:30:49;;;;;;;5.97;4.30;;;;;;;-145.52;100.00;65322.94;5087989;28;20494;-63
2023/04/04 00:33:15;;;;;;;7.17;4.37;;;;;;;-145.52;100.00;65322.94;5102578;28;20454;-63
2023/04/04 00:35:42;;;;;;;6.80;3.80;;;;;;;-145.52;100.00;65322.94;5101502;28;20510;-63
2023/04/04 00:38:09;;;;;;;8.20;3.97;;;;;;;-145.52;100.00;65322.94;5103223;28;21015;-63
2023/04/04 00:40:42;;;;;;;6.83;4.33;;;;;;;-145.52;100.00;65322.94;5102021;28;20478;-63
2023/04/04 00:43:09;;;;;;;7.63;4.20;;;;;;;-145.52;100.00;65322.94;5101687;28;21113;-64
2023/04/04 00:45:35;;;;;;;9.73;4.13;;;;;;;-145.52;100.00;65322.94;5100915;28;21096;-64
2023/04/04 00:48:03;;;;;;;5.77;3.67;;;;;;;-145.52;100.00;65322.94;5102072;28;20471;-64
2023/04/04 00:50:31;;;;;;;8.57;3.60;;;;;;;-145.52;100.00;65322.94;5101549;28;20485;-63
2023/04/04 00:52:57;;;;;;;6.13;3.80;;;;;;;-145.52;100.00;65322.94;5102189;28;20446;-64
2023/04/04 00:55:24;;;;;;;16.17;4.90;;;;;;;-145.52;100.00;65322.94;5100427;28;20956;-64
2023/04/04 00:57:52;;;;;;;4.60;3.30;;;;;;;-145.52;100.00;65322.94;5101548;28;20451;-64
2023/04/04 01:00:19;;;;;;;7.10;4.47;;;;;;;-145.52;100.00;65322.94;5107833;28;20455;-63
2023/04/04 01:02:46;;;;;;;9.40;3.90;;;;;;;-145.52;100.00;65322.94;5104618;28;20451;-63
2023/04/04 01:05:13;;;;;;;4.83;3.30;;;;;;;-145.52;100.00;65322.94;5101849;28;20439;-63
2023/04/04 01:07:40;;;;;;;7.80;3.60;;;;;;;-145.52;100.00;65322.94;5106020;28;21357;-63
2023/04/04 01:10:08;;;;;;;8.17;3.50;;;;;;;-145.52;100.00;65322.94;5108599;28;20553;-63
2023/04/04 01:12:35;;;;;;;8.00;3.57;;;;;;;-145.52;100.00;65322.94;5103377;28;20510;-63
2023/04/04 01:15:03;;;;;;;4.30;3.43;;;;;;;-145.52;100.00;65322.94;5102666;28;20447;-63
2023/04/04 01:17:30;;;;;;;9.37;3.90;;;;;;;-145.52;100.00;65322.94;5101300;28;20513;-64
2023/04/04 01:20:05;;;;;;;3.83;3.30;;;;;;;-145.52;100.00;65322.94;5100576;28;20459;-63
2023/04/04 01:22:32;;;;;;;6.70;3.63;;;;;;;-145.52;100.00;65322.94;5085728;28;20466;-64
2023/04/04 01:24:59;;;;;;;10.90;3.67;;;;;;;-145.52;100.00;65322.94;5080771;28;20458;-63
2023/04/04 01:27:27;;;;;;;4.40;3.20;;;;;;;-145.52;100.00;65322.94;5078984;28;20581;-64
2023/04/04 01:29:54;;;;;;;7.37;4.00;;;;;;;-145.52;100.00;65322.94;5081134;28;20456;-64
2023/04/04 01:32:21;;;;;;;7.30;3.33;;;;;;;-145.52;100.00;65322.94;5082116;28;20507;-64
2023/04/04 01:34:54;;;;;;;7.30;3.70;;;;;;;-145.52;100.00;65322.94;5081917;28;20479;-64
2023/04/04 01:37:29;;;;;;;5.83;3.70;;;;;;;-145.52;100.00;65322.94;5084587;28;20475;-64
2023/04/04 01:40:02;;;;;;;5.57;3.30;;;;;;;-145.52;100.00;65322.94;5079984;28;20463;-64
2023/04/04 01:42:31;;;;;;;5.40;3.50;;;;;;;-145.52;100.00;65322.94;5080686;28;20471;-65
2023/04/04 01:44:57;;;;;;;5.20;3.97;;;;;;;-145.52;100.00;65322.94;5079105;28;20462;-64
2023/04/04 01:47:24;;;;;;;4.13;2.80;;;;;;;-145.52;100.00;65322.94;5080179;28;20503;-64
2023/04/04 01:49:52;;;;;;;5.43;3.70;;;;;;;-145.52;100.00;65322.94;5080235;28;21007;-64
2023/04/04 01:52:19;;;;;;;8.93;4.37;;;;;;;-145.52;100.00;65322.94;5080510;27;20576;-64
2023/04/04 01:54:46;;;;;;;4.43;3.40;;;;;;;-145.52;100.00;65322.94;5080756;28;20436;-64
2023/04/04 01:57:12;;;;;;;5.90;3.17;;;;;;;-145.52;100.00;65322.94;5086688;28;20501;-63
2023/04/04 01:59:40;;;;;;;5.93;3.30;;;;;;;-145.52;100.00;65322.94;5080639;28;20487;-64
2023/04/04 02:02:07;;;;;;;5.23;3.30;;;;;;;-145.52;100.00;65322.94;5083227;28;20604;-63
2023/04/04 02:04:34;;;;;;;4.80;3.83;;;;;;;-145.52;100.00;65322.94;5084644;28;20444;-63
2023/04/04 02:07:00;;;;;;;5.43;3.40;;;;;;;-145.52;100.00;65322.94;5079501;28;20495;-63
2023/04/04 02:09:27;;;;;;;8.63;3.50;;;;;;;-145.52;100.00;65322.94;5080417;28;20471;-63
2023/04/04 02:11:53;;;;;;;5.57;3.40;;;;;;;-145.52;100.00;65322.94;5097892;28;20475;-63
2023/04/04 02:14:20;;;;;;;6.03;4.33;;;;;;;-145.52;100.00;65322.94;5104316;28;20474;-62
2023/04/04 02:16:48;;;;;;;9.67;3.40;;;;;;;-145.52;100.00;65322.94;5099640;28;20551;-63
2023/04/04 02:19:15;;;;;;;5.10;3.43;;;;;;;-145.52;100.00;65322.94;5099906;28;20459;-63
2023/04/04 02:21:42;;;;;;;5.17;3.80;;;;;;;-145.52;100.00;65322.94;5111767;28;20588;-63
2023/04/04 02:24:08;;;;;;;6.70;4.03;;;;;;;-145.52;100.00;65322.94;5100521;28;20486;-64
2023/04/04 02:26:35;;;;;;;7.87;4.17;;;;;;;-145.52;100.00;65322.94;5100199;28;20913;-64
2023/04/04 02:29:02;;;;;;;5.47;3.33;;;;;;;-145.52;100.00;65322.94;5102134;28;20522;-64
2023/04/04 02:31:28;;;;;;;4.53;3.30;;;;;;;-145.52;100.00;65322.94;5102510;28;20541;-63
2023/04/04 02:33:56;;;;;;;8.47;4.40;;;;;;;-145.52;100.00;65322.94;5100242;28;20823;-64
2023/04/04 02:36:23;;;;;;;7.23;4.20;;;;;;;-145.52;100.00;65322.94;5100230;28;20498;-63
2023/04/04 02:38:49;;;;;;;8.73;4.30;;;;;;;-145.52;100.00;65322.94;5112371;28;20458;-64
2023/04/04 02:41:16;;;;;;;3.60;2.80;;;;;;;-145.52;100.00;65322.94;5099814;28;20516;-64
2023/04/04 02:43:43;;;;;;;5.60;3.50;;;;;;;-145.52;100.00;65322.94;5099381;28;20474;-64
2023/04/04 02:46:09;;;;;;;10.53;4.70;;;;;;;-145.52;100.00;65322.94;5099872;28;20541;-64
2023/04/04 02:48:36;;;;;;;5.73;3.53;;;;;;;-145.52;100.00;65322.94;5103418;28;20451;-64
2023/04/04 02:51:04;;;;;;;6.03;4.30;;;;;;;-145.52;100.00;65322.94;5099957;28;20562;-64
2023/04/04 02:53:31;;;;;;;7.37;4.47;;;;;;;-145.52;100.00;65322.94;5102985;28;20447;-63
2023/04/04 02:55:58;;;;;;;5.70;4.30;;;;;;;-145.52;100.00;65322.94;5093743;28;20498;-63
2023/04/04 02:58:26;;;;;;;5.60;4.40;;;;;;;-145.52;100.00;65322.94;5085802;28;20444;-64
2023/04/04 03:00:56;;;;;;;4.70;3.50;;;;;;;-145.52;100.00;65322.94;5090730;28;20486;-64
2023/04/04 03:03:22;;;;;;;5.73;3.90;;;;;;;-145.52;100.00;65322.94;5106098;28;20443;-63
2023/04/04 03:05:50;;;;;;;8.33;3.40;;;;;;;-145.52;100.00;65322.94;5106465;27;20509;-63
2023/04/04 03:08:18;;;;;;;5.37;3.80;;;;;;;-145.52;100.00;65322.94;5105445;28;20530;-63
2023/04/04 03:10:45;;;;;;;5.67;4.10;;;;;;;-145.52;100.00;65322.94;5103239;28;20495;-62
2023/04/04 03:13:12;;;;;;;12.73;4.10;;;;;;;-145.52;100.00;65322.94;5107469;28;20553;-63
2023/04/04 03:15:39;;;;;;;5.87;4.20;;;;;;;-145.52;100.00;65322.94;5104287;28;20471;-63
2023/04/04 03:18:06;;;;;;;6.53;4.53;;;;;;;-145.52;100.00;65322.94;5104120;28;20512;-63
2023/04/04 03:20:33;;;;;;;5.27;3.40;;;;;;;-145.52;100.00;65322.94;5102890;28;20542;-63
2023/04/04 03:23:00;;;;;;;6.27;4.17;;;;;;;-145.52;100.00;65322.94;5104053;28;20477;-63
2023/04/04 03:25:28;;;;;;;8.63;4.23;;;;;;;-145.52;100.00;65322.94;5103560;28;20467;-63
2023/04/04 03:27:54;;;;;;;6.23;4.23;;;;;;;-145.52;100.00;65322.94;5103398;28;20474;-63
2023/04/04 03:30:21;;;;;;;6.43;3.83;;;;;;;-145.52;100.00;65322.94;5102286;28;20697;-63
2023/04/04 03:32:49;;;;;;;5.53;4.43;;;;;;;-145.52;100.00;65322.94;5103615;28;20885;-63
2023/04/04 03:35:19;;;;;;;3.97;3.50;;;;;;;-145.52;100.00;65322.94;5102300;28;20951;-63
2023/04/04 03:37:45;;;;;;;6.20;3.83;;;;;;;-145.52;100.00;65322.94;5103691;28;20451;-63
2023/04/04 03:40:13;;;;;;;8.83;3.70;;;;;;;-145.52;100.00;65322.94;5101883;28;20907;-63
2023/04/04 03:42:41;;;;;;;5.67;4.60;;;;;;;-145.52;100.00;65322.94;5103426;28;20874;-64
2023/04/04 03:45:08;;;;;;;5.93;4.00;;;;;;;-145.52;100.00;65322.94;5104208;28;20462;-63
2023/04/04 03:47:35;;;;;;;4.80;4.03;;;;;;;-145.52;100.00;65322.94;5102986;28;20517;-64
2023/04/04 03:50:02;;;;;;;7.50;5.30;;;;;;;-145.52;100.00;65322.94;5102663;28;20475;-64
2023/04/04 03:52:28;;;;;;;6.90;4.30;;;;;;;-145.52;100.00;65322.94;5100737;28;20475;-64
2023/04/04 03:54:55;;;;;;;11.23;5.00;;;;;;;-145.52;100.00;65322.94;5104368;28;20451;-63
2023/04/04 03:57:22;;;;;;;5.20;3.63;;;;;;;-145.52;100.00;65322.94;5105600;28;20481;-64
2023/04/04 03:59:50;;;;;;;5.63;5.10;;;;;;;-145.52;100.00;65322.94;5101213;28;21014;-64
2023/04/04 04:02:16;;;;;;;5.50;4.60;;;;;;;-145.52;100.00;65322.94;5090965;27;20539;-64
2023/04/04 04:04:43;;;;;;;7.17;4.40;;;;;;;-145.52;100.00;65322.94;5085823;28;20513;-64
2023/04/04 04:07:10;;;;;;;4.83;4.10;;;;;;;-145.52;100.00;65322.94;5100344;28;20507;-64
2023/04/04 04:09:37;;;;;;;6.70;4.07;;;;;;;-145.52;100.00;65322.94;5103726;28;20493;-64
2023/04/04 04:12:04;;;;;;;6.67;4.10;;;;;;;-145.52;100.00;65322.94;5117296;27;20998;-64
2023/04/04 04:14:30;;;;;;;10.20;3.80;;;;;;;-145.52;100.00;65322.94;5110424;28;20454;-64
2023/04/04 04:16:58;;;;;;;5.70;3.90;;;;;;;-145.52;100.00;65322.94;5103301;27;20482;-64
2023/04/04 04:19:25;;;;;;;5.40;4.03;;;;;;;-145.52;100.00;65322.94;5099983;28;20459;-64
2023/04/04 04:21:52;;;;;;;5.20;3.63;;;;;;;-145.52;100.00;65322.94;5100227;28;20532;-64
2023/04/04 04:24:18;;;;;;;6.10;4.37;;;;;;;-145.52;100.00;65322.94;5102111;28;20782;-64
2023/04/04 04:26:45;;;;;;;6.10;4.10;;;;;;;-145.52;100.00;65322.94;5095347;28;20482;-64
2023/04/04 04:29:12;;;;;;;5.50;4.37;;;;;;;-145.52;100.00;65322.94;5103720;28;20471;-65
2023/04/04 04:31:38;;;;;;;5.87;4.30;;;;;;;-145.52;100.00;65322.94;5101230;28;20995;-66
2023/04/04 04:34:07;;;;;;;8.47;5.40;;;;;;;-145.52;100.00;65322.94;5101445;28;20439;-69
2023/04/04 04:36:34;;;;;;;10.20;6.50;;;;;;;-145.52;100.00;65322.94;5089398;28;20949;-67
2023/04/04 04:39:01;;;;;;;6.20;5.00;;;;;;;-145.52;100.00;65322.94;5100624;28;20481;-66
2023/04/04 04:41:28;;;;;;;6.57;4.17;;;;;;;-145.52;100.00;65322.94;5100360;28;20871;-67
2023/04/04 04:43:54;;;;;;;8.70;5.30;;;;;;;-145.52;100.00;65322.94;5098059;28;20463;-67
2023/04/04 04:46:21;;;;;;;7.60;5.57;;;;;;;-145.52;100.00;65322.94;5093306;28;20475;-67
2023/04/04 04:48:48;;;;;;;9.60;5.30;;;;;;;-145.52;100.00;65322.94;5093215;28;20506;-67
2023/04/04 04:51:19;;;;;;;6.67;4.17;;;;;;;-145.52;100.00;65322.94;5098234;28;20542;-67
2023/04/04 04:53:45;;;;;;;6.83;4.90;;;;;;;-145.52;100.00;65322.94;5100072;28;20471;-66
2023/04/04 04:56:12;;;;;;;8.70;5.90;;;;;;;-145.52;100.00;65322.94;5100543;28;20489;-66
2023/04/04 04:58:39;;;;;;;8.77;5.90;;;;;;;-145.52;100.00;65322.94;5097490;28;20515;-66
2023/04/04 05:01:06;;;;;;;9.70;5.40;;;;;;;-145.52;100.00;65322.94;5099616;28;20483;-66
2023/04/04 05:03:33;;;;;;;7.17;5.43;;;;;;;-145.52;100.00;65322.94;5099267;28;20788;-67
2023/04/04 05:06:00;;;;;;;6.80;5.73;;;;;;;-145.52;100.00;65322.94;5098819;28;20554;-66
2023/04/04 05:08:28;;;;;;;8.20;5.67;;;;;;;-145.52;100.00;65322.94;5100855;28;20486;-67
2023/04/04 05:10:55;;;;;;;7.10;5.20;;;;;;;-145.52;100.00;65322.94;5094073;28;20529;-69
2023/04/04 05:13:22;;;;;;;10.43;5.93;;;;;;;-145.52;100.00;65322.94;5092623;28;20573;-69
2023/04/04 05:15:49;;;;;;;7.23;5.90;;;;;;;-145.52;100.00;65322.94;5100264;28;20532;-69
2023/04/04 05:18:21;;;;;;;7.33;5.27;;;;;;;-145.52;100.00;65322.94;5100668;28;20951;-69
2023/04/04 05:20:51;;;;;;;10.87;5.63;;;;;;;-145.52;100.00;65322.94;5098541;28;20467;-69
2023/04/04 05:23:18;;;;;;;5.13;4.57;;;;;;;-145.52;100.00;65322.94;5100586;28;20451;-67
2023/04/04 05:25:49;;;;;;;8.97;5.90;;;;;;;-145.52;100.00;65322.94;5100018;27;20467;-68
2023/04/04 05:28:15;;;;;;;7.30;6.20;;;;;;;-145.52;100.00;65322.94;5100163;28;20470;-68
2023/04/04 05:30:42;;;;;;;8.53;4.97;;;;;;;-145.52;100.00;65322.94;5096590;28;20482;-68
2023/04/04 05:33:08;;;;;;;8.90;5.53;;;;;;;-145.52;100.00;65322.94;5100502;28;20478;-68
2023/04/04 05:35:35;;;;;;;9.60;5.90;;;;;;;-145.52;100.00;65322.94;5099390;28;20490;-68
2023/04/04 05:38:02;;;;;;;12.60;6.47;;;;;;;-145.52;100.00;65322.94;5100215;28;20466;-68
2023/04/04 05:40:29;;;;;;;8.50;5.70;;;;;;;-145.52;100.00;65322.94;5099546;28;20474;-68
2023/04/04 05:42:57;;;;;;;9.67;6.33;;;;;;;-145.52;100.00;65322.94;5095789;28;20557;-68
2023/04/04 05:45:24;;;;;;;8.07;6.10;;;;;;;-145.52;100.00;65322.94;5095101;28;20447;-67
2023/04/04 05:47:51;;;;;;;8.30;5.33;;;;;;;-145.52;100.00;65322.94;5097789;28;20503;-67
2023/04/04 05:50:18;;;;;;;8.23;5.70;;;;;;;-145.52;100.00;65322.94;5096662;28;20465;-67
2023/04/04 05:52:46;;;;;;;7.33;5.07;;;;;;;-145.52;100.00;65322.94;5098498;28;20720;-67
2023/04/04 05:55:13;;;;;;;9.20;5.93;;;;;;;-145.52;100.00;65322.94;5097167;28;20483;-67
2023/04/04 05:57:47;;;;;;;6.33;4.87;;;;;;;-145.52;100.00;65322.94;5097466;28;20481;-67
2023/04/04 06:00:16;;;;;;;10.60;4.87;;;;;;;-145.52;100.00;65322.94;5096262;28;20462;-67
2023/04/04 06:02:43;;;;;;;9.67;4.97;;;;;;;-145.52;100.00;65322.94;5097911;28;20822;-68
2023/04/04 06:05:10;;;;;;;10.43;5.50;;;;;;;-145.52;100.00;65322.94;5097465;28;20439;-67
2023/04/04 06:07:36;;;;;;;5.50;4.03;;;;;;;-145.52;100.00;65322.94;5095846;28;20502;-67
2023/04/04 06:10:07;;;;;;;8.50;5.10;;;;;;;-145.52;100.00;65322.94;5096133;28;20992;-66
2023/04/04 06:12:34;;;;;;;6.23;4.13;;;;;;;-145.52;100.00;65322.94;5098778;28;20462;-67
2023/04/04 06:15:03;;;;;;;10.17;5.17;;;;;;;-145.52;100.00;65322.94;5099343;28;20516;-67
2023/04/04 06:17:31;;;;;;;8.43;4.73;;;;;;;-145.52;100.00;65322.94;5100080;28;20467;-67
2023/04/04 06:19:58;;;;;;;10.20;4.43;;;;;;;-145.52;100.00;65322.94;5098437;28;20908;-68
2023/04/04 06:22:24;;;;;;;6.30;4.60;;;;;;;-145.52;100.00;65322.94;5099450;28;20479;-67
2023/04/04 06:24:51;;;;;;;6.73;4.90;;;;;;;-145.52;100.00;65322.94;5100389;28;20446;-67
2023/04/04 06:27:21;;;;;;;6.70;4.70;;;;;;;-145.52;100.00;65322.94;5099212;28;20824;-68
2023/04/04 06:29:48;;;;;;;6.30;5.00;;;;;;;-145.52;100.00;65322.94;5098657;28;20451;-67
2023/04/04 06:32:14;;;;;;;9.33;5.37;;;;;;;-145.52;100.00;65322.94;5102746;28;20467;-66
2023/04/04 06:34:42;;;;;;;5.97;5.00;;;;;;;-145.52;100.00;65322.94;5103471;28;20439;-66
2023/04/04 06:37:09;;;;;;;10.43;5.20;;;;;;;-145.52;100.00;65322.94;5104211;28;20463;-67
2023/04/04 06:39:36;;;;;;;7.33;3.77;;;;;;;-145.52;100.00;65322.94;5103954;28;20478;-66
2023/04/04 06:42:02;;;;;;;5.37;4.23;;;;;;;-145.52;100.00;65322.94;5102148;28;20475;-67
2023/04/04 06:44:29;;;;;;;6.10;3.83;;;;;;;-145.52;100.00;65322.94;5103680;28;20556;-67
2023/04/04 06:46:56;;;;;;;6.00;4.40;;;;;;;-145.52;100.00;65322.94;5103381;28;20906;-67
2023/04/04 06:49:24;;;;;;;5.97;3.63;;;;;;;-145.52;100.00;65322.94;5102714;28;20478;-67
2023/04/04 06:51:53;;;;;;;4.47;3.63;;;;;;;-145.52;100.00;65322.94;5102875;28;20483;-67
2023/04/04 06:54:19;;;;;;;5.97;4.13;;;;;;;-145.52;100.00;65322.94;5103681;28;20526;-67
2023/04/04 06:56:46;;;;;;;7.00;4.77;;;;;;;-145.52;100.00;65322.94;5102735;28;20505;-67
2023/04/04 06:59:12;;;;;;;7.00;5.00;;;;;;;-145.52;100.00;65322.94;5103172;28;20471;-67
2023/04/04 07:01:39;;;;;;;8.33;4.90;;;;;;;-145.52;100.00;65322.94;5102607;28;20466;-68
2023/04/04 07:04:06;;;;;;;6.83;4.30;;;;;;;-145.52;100.00;65322.94;5102879;28;20489;-67
2023/04/04 07:06:32;;;;;;;5.03;3.13;;;;;;;-145.52;100.00;65322.94;5103198;28;20492;-67
2023/04/04 07:09:02;;;;;;;8.30;4.70;;;;;;;-145.52;100.00;65322.94;5103589;28;20475;-67
2023/04/04 07:11:28;;;;;;;6.90;4.13;;;;;;;-145.52;100.00;65322.94;5101836;28;21084;-69
2023/04/04 07:13:55;;;;;;;6.30;4.03;;;;;;;-145.52;100.00;65322.94;5102679;28;20593;-68
2023/04/04 07:16:22;;;;;;;7.80;4.20;;;;;;;-145.52;100.00;65322.94;5103056;28;20475;-69
2023/04/04 07:18:48;;;;;;;4.50;3.60;;;;;;;-145.52;100.00;65322.94;5102217;28;20511;-68
2023/04/04 07:21:16;;;;;;;5.43;4.33;;;;;;;-145.52;100.00;65322.94;5102561;28;20498;-68
2023/04/04 07:23:42;;;;;;;6.03;3.43;;;;;;;-145.52;100.00;65322.94;5103480;28;20488;-68
2023/04/04 07:26:10;;;;;;;4.90;3.50;;;;;;;-145.52;100.00;65322.94;5102003;28;20505;-67
2023/04/04 07:28:37;;;;;;;4.70;3.17;;;;;;;-145.52;100.00;65322.94;5102306;28;21031;-68
2023/04/04 07:31:04;;;;;;;9.00;3.53;;;;;;;-145.52;100.00;65322.94;5092503;28;20478;-67
2023/04/04 07:33:31;;;;;;;3.33;2.70;;;;;;;-145.52;100.00;65322.94;5102447;28;20953;-68
2023/04/04 07:35:58;;;;;;;4.60;3.17;;;;;;;-145.52;100.00;65322.94;5102218;28;20490;-68
2023/04/04 07:38:26;;;;;;;5.27;3.40;;;;;;;-145.52;100.00;65322.94;5103230;28;20475;-68
2023/04/04 07:40:52;;;;;;;6.20;3.23;;;;;;;-145.52;100.00;65322.94;5101442;28;20499;-68
2023/04/04 07:43:21;;;;;;;3.23;2.90;;;;;;;-145.52;100.00;65322.94;5101693;28;20463;-68
2023/04/04 07:45:48;;;;;;;4.30;2.70;;;;;;;-145.52;100.00;65322.94;5101799;28;20984;-68
2023/04/04 07:48:14;;;;;;;6.17;3.13;;;;;;;-145.52;100.00;65322.94;5102174;28;20582;-68
2023/04/04 07:50:41;;;;;;;4.80;2.53;;;;;;;-145.52;100.00;65322.94;5102202;28;20893;-68
2023/04/04 07:53:08;;;;;;;4.00;3.10;;;;;;;-145.52;100.00;65322.94;5102396;28;20628;-67
2023/04/04 07:55:34;;;;;;;5.20;3.10;;;;;;;-145.52;100.00;65322.94;5101707;28;20497;-69
2023/04/04 07:58:01;;;;;;;4.63;2.97;;;;;;;-145.52;100.00;65322.94;5102952;28;20471;-68
2023/04/04 08:00:29;;;;;;;7.90;3.40;;;;;;;-145.52;100.00;65322.94;5101108;28;20498;-67
2023/04/04 08:02:57;;;;;;;6.83;3.30;;;;;;;-145.52;100.00;65322.94;5101739;28;20537;-67
2023/04/04 08:05:24;;;;;;;4.17;2.83;;;;;;;-145.52;100.00;65322.94;5102504;28;20439;-67
2023/04/04 08:07:51;;;;;;;4.33;2.67;;;;;;;-145.52;100.00;65322.94;5102197;28;20503;-67
2023/04/04 08:10:20;;;;;;;5.63;2.70;;;;;;;-145.52;100.00;65322.94;5100831;28;20794;-69
2023/04/04 08:12:47;;;;;;;6.00;3.00;;;;;;;-145.52;100.00;65322.94;5098287;28;20500;-66
2023/04/04 08:15:14;;;;;;;3.60;2.73;;;;;;;-145.52;100.00;65322.94;5100927;28;20974;-67
2023/04/04 08:17:43;;;;;;;4.23;2.87;;;;;;;-145.52;100.00;65322.94;5102024;28;20450;-68
2023/04/04 08:20:10;;;;;;;8.57;3.00;;;;;;;-145.52;100.00;65322.94;5100983;28;20565;-67
2023/04/04 08:22:38;;;;;;;3.70;2.40;;;;;;;-145.52;100.00;65322.94;5101867;28;20447;-68
2023/04/04 08:25:08;;;;;;;4.30;2.90;;;;;;;-145.52;100.00;65322.94;5101542;28;20478;-69
2023/04/04 08:27:35;;;;;;;4.37;2.50;;;;;;;-145.52;100.00;65322.94;5101679;28;20485;-67
2023/04/04 08:30:03;;;;;;;3.40;2.37;;;;;;;-145.52;100.00;65322.94;5101060;28;20496;-68
2023/04/04 08:32:30;;;;;;;3.50;2.30;;;;;;;-145.52;100.00;65322.94;5100658;28;20471;-68
2023/04/04 08:34:59;;;;;;;2.93;1.67;;;;;;;-145.52;100.00;65322.94;5101753;28;20487;-69
2023/04/04 08:37:26;;;;;;;4.10;1.70;;;;;;;-145.52;100.00;65322.94;5101699;28;20467;-70
2023/04/04 08:39:52;;;;;;;5.83;2.50;;;;;;;-145.52;100.00;65322.94;5100937;28;20484;-69
2023/04/04 08:42:20;;;;;;;2.77;1.70;;;;;;;-145.52;100.00;65322.94;5101093;28;21155;-67
2023/04/04 08:44:48;;;;;;;5.87;2.13;;;;;;;-145.52;100.00;65322.94;5100780;28;20447;-68
2023/04/04 08:47:15;;;;;;;3.10;1.60;;;;;;;-145.52;100.00;65322.94;5100506;28;20463;-68
2023/04/04 08:49:44;;;;;;;6.43;1.73;;;;;;;-145.52;100.00;65322.94;5101461;28;20486;-68
2023/04/04 08:52:13;;;;;;;3.93;2.23;;;;;;;-145.52;100.00;65322.94;5101222;28;20471;-68
2023/04/04 08:54:40;;;;;;;5.90;1.67;;;;;;;-145.52;100.00;65322.94;5100918;28;20443;-68
2023/04/04 08:57:08;;;;;;;2.90;1.70;;;;;;;-145.52;100.00;65322.94;5101390;28;20463;-68
2023/04/04 08:59:35;;;;;;;3.23;1.70;;;;;;;-145.52;100.00;65322.94;5100617;28;20450;-68
2023/04/04 09:02:13;;;;;;;2.80;1.50;;;;;;;-145.52;100.00;65322.94;5100489;28;20494;-69
2023/04/04 09:04:40;;;;;;;4.17;1.70;;;;;;;-145.52;100.00;65322.94;5101134;28;20467;-68
2023/04/04 09:07:06;;;;;;;4.13;1.83;;;;;;;-145.52;100.00;65322.94;5101051;28;20462;-68
2023/04/04 09:09:36;;;;;;;3.80;1.80;;;;;;;-145.52;100.00;65322.94;5100403;28;20486;-68
2023/04/04 09:12:04;;;;;;;4.27;1.73;;;;;;;-145.52;100.00;65322.94;5088776;28;20471;-68
2023/04/04 09:14:31;;;;;;;3.23;1.67;;;;;;;-145.52;100.00;65322.94;5100448;28;20447;-69
2023/04/04 09:16:57;;;;;;;3.27;2.10;;;;;;;-145.52;100.00;65322.94;5100219;28;20475;-69
2023/04/04 09:19:24;;;;;;;3.40;2.10;;;;;;;-145.52;100.00;65322.94;5100589;28;20443;-68
2023/04/04 09:21:51;;;;;;;4.57;1.97;;;;;;;-145.52;100.00;65322.94;5100676;28;20499;-69
2023/04/04 09:24:17;;;;;;;3.17;1.70;;;;;;;-145.52;100.00;65322.94;5099930;28;20469;-69
2023/04/04 09:26:50;;;;;;;4.97;2.13;;;;;;;-145.52;100.00;65322.94;5100328;28;20505;-69
2023/04/04 09:29:17;;;;;;;4.03;2.23;;;;;;;-145.52;100.00;65322.94;5099799;28;20528;-69
2023/04/04 09:31:45;;;;;;;7.93;2.90;;;;;;;-145.52;100.00;65322.94;5099569;28;20466;-69
2023/04/04 09:34:13;;;;;;;4.70;2.10;;;;;;;-145.52;100.00;65322.94;5100982;28;20467;-69
2023/04/04 09:36:40;;;;;;;4.80;2.47;;;;;;;-145.52;100.00;65322.94;5100187;28;20531;-69
2023/04/04 09:39:07;;;;;;;4.67;2.83;;;;;;;-145.52;100.00;65322.94;5099782;28;21008;-69
2023/04/04 09:41:34;;;;;;;4.60;2.40;;;;;;;-145.52;100.00;65322.94;5099254;28;20471;-69
2023/04/04 09:44:02;;;;;;;3.93;2.20;;;;;;;-145.52;100.00;65322.94;5100001;28;20470;-69
2023/04/04 09:46:29;;;;;;;3.80;2.47;;;;;;;-145.52;100.00;65322.94;5099368;28;20893;-69
2023/04/04 09:48:57;;;;;;;3.00;1.70;;;;;;;-145.52;100.00;65322.94;5095454;28;20514;-69
2023/04/04 09:51:23;;;;;;;5.00;2.20;;;;;;;-145.52;100.00;65322.94;5099787;28;20481;-69
2023/04/04 09:53:51;;;;;;;2.43;1.90;;;;;;;-145.52;100.00;65322.94;5099714;28;20455;-69
2023/04/04 09:56:19;;;;;;;5.50;2.70;;;;;;;-145.52;100.00;65322.94;5100107;28;20474;-68
2023/04/04 09:58:47;;;;;;;3.13;2.27;;;;;;;-145.52;100.00;65322.94;5100681;28;20469;-70
2023/04/04 10:01:15;;;;;;;4.33;1.97;;;;;;;-145.52;100.00;65322.94;5098209;28;20466;-70
2023/04/04 10:03:42;;;;;;;3.43;2.10;;;;;;;-145.52;100.00;65322.94;5100656;28;20473;-70
2023/04/04 10:06:10;;;;;;;3.40;1.93;;;;;;;-145.52;100.00;65322.94;5098859;28;20466;-70
2023/04/04 10:08:39;;;;;;;3.30;2.70;;;;;;;-145.52;100.00;65322.94;5100010;28;20538;-69
2023/04/04 10:11:06;;;;;;;3.03;2.23;;;;;;;-145.52;100.00;65322.94;5099689;28;20490;-69
2023/04/04 10:13:35;;;;;;;3.07;2.10;;;;;;;-145.52;100.00;65322.94;5100799;28;20506;-69
2023/04/04 10:16:03;;;;;;;3.50;2.10;;;;;;;-145.52;100.00;65322.94;5097358;28;20467;-69
2023/04/04 10:18:33;;;;;;;5.50;2.47;;;;;;;-145.52;100.00;65322.94;5100059;28;20519;-68
2023/04/04 10:21:02;;;;;;;4.33;2.33;;;;;;;-145.52;100.00;65322.94;5086234;28;20471;-69
2023/04/04 10:23:28;;;;;;;5.80;2.40;;;;;;;-145.52;100.00;65322.94;5099483;28;20443;-68
2023/04/04 10:25:56;;;;;;;5.80;2.37;;;;;;;-145.52;100.00;65322.94;5099701;28;20505;-69
2023/04/04 10:28:23;;;;;;;4.27;2.53;;;;;;;-145.52;100.00;65322.94;5100403;28;20911;-68
2023/04/04 10:30:53;;;;;;;6.90;2.10;;;;;;;-145.52;100.00;65322.94;5098071;28;20923;-68
2023/04/04 10:33:23;;;;;;;4.57;2.17;;;;;;;-145.52;100.00;65322.94;5100504;28;20557;-68
2023/04/04 10:35:54;;;;;;;2.60;2.10;;;;;;;-145.52;100.00;65322.94;5089944;28;20463;-67
2023/04/04 10:38:26;;;;;;;3.20;2.03;;;;;;;-145.52;100.00;65322.94;5100231;28;20956;-67
2023/04/04 10:40:53;;;;;;;2.30;1.70;;;;;;;-145.52;100.00;65322.94;5099199;28;20467;-69
2023/04/04 10:43:22;;;;;;;3.87;2.20;;;;;;;-145.52;100.00;65322.94;5099952;28;20463;-67
2023/04/04 10:45:49;;;;;;;5.43;2.30;;;;;;;-145.52;100.00;65322.94;5098479;28;20774;-68
2023/04/04 10:48:16;;;;;;;4.00;2.30;;;;;;;-145.52;100.00;65322.94;5100510;28;20837;-69
2023/04/04 10:50:43;;;;;;;2.93;1.97;;;;;;;-145.52;100.00;65322.94;5099455;28;20520;-67
2023/04/04 10:53:11;;;;;;;3.53;2.40;;;;;;;-145.52;100.00;65322.94;5100064;28;20446;-68
2023/04/04 10:55:39;;;;;;;3.77;2.17;;;;;;;-145.52;100.00;65322.94;5099020;28;20463;-69
2023/04/04 10:58:07;;;;;;;3.10;2.37;;;;;;;-145.52;100.00;65322.94;5100646;28;20470;-69
2023/04/04 11:00:49;;;;;;;6.33;2.40;;;;;;;-145.52;100.00;65322.94;5097302;28;20492;-69
2023/04/04 11:03:16;;;;;;;4.37;1.87;;;;;;;-145.52;100.00;65322.94;5099796;28;20506;-69
2023/04/04 11:05:46;;;;;;;3.37;1.93;;;;;;;-145.52;100.00;65322.94;5099007;28;20882;-69
2023/04/04 11:08:17;;;;;;;3.10;1.90;;;;;;;-145.52;100.00;65322.94;5099461;28;20447;-70
2023/04/04 11:10:45;;;;;;;3.33;2.00;;;;;;;-145.52;100.00;65322.94;5098974;28;20455;-69